createdAt,value
2023-03-10T00:01:55.444Z,97549.00
2023-03-10T00:04:23.036Z,97544.63
2023-03-10T00:06:50.829Z,97537.59
2023-03-10T00:09:18.551Z,97532.19
2023-03-10T00:11:46.186Z,97535.63
2023-03-10T00:14:14.074Z,97533.22
2023-03-10T00:16:42.661Z,97531.59
2023-03-10T00:19:11.803Z,97523.19
2023-03-10T00:21:39.566Z,97533.00
2023-03-10T00:24:07.376Z,97520.56
2023-03-10T00:26:35.143Z,97521.38
2023-03-10T00:29:02.844Z,97525.59
2023-03-10T00:31:31.345Z,97516.88
2023-03-10T00:33:59.325Z,97515.25
2023-03-10T00:36:31.601Z,97509.72
2023-03-10T00:39:01.259Z,97522.19
2023-03-10T00:41:32.427Z,97497.88
2023-03-10T00:44:02.288Z,97510.19
2023-03-10T00:46:33.204Z,97507.88
2023-03-10T00:49:01.226Z,97503.63
2023-03-10T00:51:30.378Z,97498.78
2023-03-10T00:53:58.291Z,97493.72
2023-03-10T00:56:26.974Z,97499.81
2023-03-10T00:58:56.952Z,97494.41
2023-03-10T01:01:26.797Z,97488.31
2023-03-10T01:03:56.424Z,97479.91
2023-03-10T01:06:24.455Z,97467.94
2023-03-10T01:08:53.729Z,97466.09
2023-03-10T01:11:24.612Z,97478.28
2023-03-10T01:13:53.129Z,97471.28
2023-03-10T01:16:20.936Z,97467.69
2023-03-10T01:18:48.801Z,97478.03
2023-03-10T01:21:19.073Z,97479.09
2023-03-10T01:23:46.766Z,97473.22
2023-03-10T01:26:18.118Z,97469.50
2023-03-10T01:28:46.467Z,97466.50
2023-03-10T01:31:14.594Z,97457.03
2023-03-10T01:33:43.076Z,97462.72
2023-03-10T01:36:11.371Z,97443.59
2023-03-10T01:38:39.750Z,97445.44
2023-03-10T01:41:07.781Z,97441.63
2023-03-10T01:43:37.804Z,97436.34
2023-03-10T01:46:38.238Z,97420.34
2023-03-10T01:49:12.073Z,97428.19
2023-03-10T01:51:42.483Z,97414.84
2023-03-10T01:54:15.723Z,97403.78
2023-03-10T01:56:43.709Z,97421.19
2023-03-10T01:59:13.677Z,97414.84
2023-03-10T02:01:41.449Z,97404.59
2023-03-10T02:04:12.152Z,97390.66
2023-03-10T02:06:41.798Z,97396.56
2023-03-10T02:09:10.797Z,97403.09
2023-03-10T02:11:39.607Z,97393.09
2023-03-10T02:14:07.711Z,97396.09
2023-03-10T02:16:36.688Z,97394.00
2023-03-10T02:19:07.349Z,97394.59
2023-03-10T02:21:45.640Z,97385.84
2023-03-10T02:24:22.105Z,97381.81
2023-03-10T02:26:57.253Z,97382.50
2023-03-10T02:29:31.752Z,97366.63
2023-03-10T02:32:00.206Z,97383.91
2023-03-10T02:34:29.167Z,97378.13
2023-03-10T02:36:57.207Z,97381.69
2023-03-10T02:39:24.910Z,97370.28
2023-03-10T02:41:53.870Z,97363.16
2023-03-10T02:44:24.462Z,97377.19
2023-03-10T02:46:53.701Z,97352.91
2023-03-10T02:49:25.620Z,97360.84
2023-03-10T02:51:53.589Z,97354.75
2023-03-10T02:54:21.347Z,97353.13
2023-03-10T02:56:49.145Z,97353.13
2023-03-10T02:59:16.816Z,97350.16
2023-03-10T03:01:44.605Z,97346.34
2023-03-10T03:04:13.865Z,97341.03
2023-03-10T03:06:41.665Z,97352.91
2023-03-10T03:09:09.681Z,97343.47
2023-03-10T03:11:37.409Z,97336.91
2023-03-10T03:14:05.131Z,97327.91
2023-03-10T03:16:32.943Z,97338.03
2023-03-10T03:19:00.764Z,97335.50
2023-03-10T03:21:29.923Z,97318.13
2023-03-10T03:23:57.593Z,97319.41
2023-03-10T03:26:26.917Z,97302.72
2023-03-10T03:28:54.685Z,97317.81
2023-03-10T03:31:25.483Z,97296.03
2023-03-10T03:33:53.258Z,97295.72
2023-03-10T03:36:21.073Z,97293.06
2023-03-10T03:38:50.232Z,97286.28
2023-03-10T03:41:18.033Z,97279.16
2023-03-10T03:43:45.777Z,97283.88
2023-03-10T03:46:13.546Z,97273.84
2023-03-10T03:48:41.436Z,97285.16
2023-03-10T03:51:09.410Z,97275.25
2023-03-10T03:53:37.187Z,97243.22
2023-03-10T03:56:06.902Z,97241.38
2023-03-10T03:58:34.880Z,97231.81
2023-03-10T04:01:02.634Z,97256.47
2023-03-10T04:03:30.429Z,97280.91
2023-03-10T04:05:58.164Z,97270.19
2023-03-10T04:08:25.829Z,97295.16
2023-03-10T04:10:54.433Z,97297.13
2023-03-10T04:13:23.493Z,97308.06
2023-03-10T04:15:56.252Z,97296.56
2023-03-10T04:18:23.945Z,97292.53
2023-03-10T04:20:51.795Z,97310.47
2023-03-10T04:23:19.560Z,97306.22
2023-03-10T04:25:47.278Z,97305.56
2023-03-10T04:28:15.056Z,97296.44
2023-03-10T04:30:44.790Z,97293.09
2023-03-10T04:33:13.219Z,97298.06
2023-03-10T04:35:42.078Z,97299.44
2023-03-10T04:38:10.416Z,97295.75
2023-03-10T04:40:38.222Z,97297.47
2023-03-10T04:43:06.096Z,97299.19
2023-03-10T04:45:33.718Z,97285.75
2023-03-10T04:48:02.736Z,97280.34
2023-03-10T04:50:30.509Z,97280.34
2023-03-10T04:52:58.225Z,97281.16
2023-03-10T04:55:25.860Z,97288.75
2023-03-10T04:57:53.627Z,97263.75
2023-03-10T05:00:21.725Z,97264.94
2023-03-10T05:02:49.453Z,97276.31
2023-03-10T05:05:18.949Z,97271.34
2023-03-10T05:07:46.563Z,97260.66
2023-03-10T05:10:14.301Z,97271.59
2023-03-10T05:12:43.102Z,97258.25
2023-03-10T05:15:11.606Z,97253.75
2023-03-10T05:17:39.274Z,97237.19
2023-03-10T05:20:09.256Z,97238.91
2023-03-10T05:22:38.920Z,97243.19
2023-03-10T05:25:21.401Z,97246.63
2023-03-10T05:27:49.063Z,97245.50
2023-03-10T05:30:17.662Z,97248.16
2023-03-10T05:32:46.121Z,97247.75
2023-03-10T05:35:15.436Z,97247.53
2023-03-10T05:37:45.225Z,97243.88
2023-03-10T05:40:15.899Z,97247.22
2023-03-10T05:42:43.654Z,97248.34
2023-03-10T05:45:12.157Z,97249.97
2023-03-10T05:47:39.788Z,97238.75
2023-03-10T05:50:08.777Z,97240.50
2023-03-10T05:52:38.429Z,97232.34
2023-03-10T05:55:09.833Z,97227.59
2023-03-10T05:57:37.726Z,97222.66
2023-03-10T06:00:10.117Z,97214.38
2023-03-10T06:02:39.101Z,97208.03
2023-03-10T06:05:11.231Z,97208.84
2023-03-10T06:07:39.261Z,97199.41
2023-03-10T06:10:10.607Z,97195.38
2023-03-10T06:12:38.667Z,97199.50
2023-03-10T06:15:07.569Z,97184.81
2023-03-10T06:17:35.185Z,97196.41
2023-03-10T06:20:02.988Z,97195.38
2023-03-10T06:22:31.460Z,97202.06
2023-03-10T06:24:59.158Z,97195.16
2023-03-10T06:27:28.346Z,97184.69
2023-03-10T06:29:56.223Z,97198.88
2023-03-10T06:32:24.154Z,97202.31
2023-03-10T06:34:51.832Z,97196.00
2023-03-10T06:37:19.538Z,97181.16
2023-03-10T06:39:47.131Z,97180.34
2023-03-10T06:42:14.699Z,97190.72
2023-03-10T06:44:43.672Z,97187.81
2023-03-10T06:47:11.534Z,97186.78
2023-03-10T06:49:39.238Z,97189.50
2023-03-10T06:52:07.227Z,97185.03
2023-03-10T06:54:34.908Z,97198.34
2023-03-10T06:57:02.561Z,97203.28
2023-03-10T06:59:32.665Z,97190.13
2023-03-10T07:02:01.670Z,97202.56
2023-03-10T07:04:29.467Z,97211.91
2023-03-10T07:06:57.108Z,97194.75
2023-03-10T07:09:24.807Z,97194.41
2023-03-10T07:11:52.482Z,97197.72
2023-03-10T07:14:20.124Z,97215.00
2023-03-10T07:16:47.975Z,97225.31
2023-03-10T07:19:17.045Z,97241.22
2023-03-10T07:21:44.711Z,97232.13
2023-03-10T07:24:12.403Z,97252.88
2023-03-10T07:26:40.350Z,97261.84
2023-03-10T07:29:08.374Z,97266.22
2023-03-10T07:31:37.246Z,97283.50
2023-03-10T07:34:04.928Z,97275.69
2023-03-10T07:36:33.878Z,97278.09
2023-03-10T07:39:01.608Z,97271.31
2023-03-10T07:41:29.566Z,97274.50
2023-03-10T07:43:57.432Z,97275.41
2023-03-10T07:46:25.123Z,97276.06
2023-03-10T07:48:53.882Z,97276.28
2023-03-10T07:51:21.829Z,97271.00
2023-03-10T07:53:50.885Z,97260.63
2023-03-10T07:56:18.531Z,97262.59
2023-03-10T07:58:46.165Z,97264.91
2023-03-10T08:01:16.553Z,97259.28
2023-03-10T08:03:44.543Z,97256.25
2023-03-10T08:06:17.453Z,97262.56
2023-03-10T08:08:45.156Z,97269.59
2023-03-10T08:11:14.272Z,97267.13
2023-03-10T08:13:42.253Z,97271.66
2023-03-10T08:16:09.962Z,97272.19
2023-03-10T08:18:37.981Z,97266.03
2023-03-10T08:21:06.731Z,97272.69
2023-03-10T08:23:35.552Z,97273.34
2023-03-10T08:26:05.642Z,97264.91
2023-03-10T08:28:37.609Z,97276.00
2023-03-10T08:31:09.568Z,97272.94
2023-03-10T08:33:37.770Z,97282.06
2023-03-10T08:36:08.611Z,97287.34
2023-03-10T08:38:36.738Z,97284.56
2023-03-10T08:41:15.762Z,97291.69
2023-03-10T08:43:48.567Z,97293.28
2023-03-10T08:46:17.681Z,97289.66
2023-03-10T08:48:45.330Z,97288.13
2023-03-10T08:51:15.787Z,97288.84
2023-03-10T08:53:46.562Z,97289.03
2023-03-10T08:56:14.462Z,97289.25
2023-03-10T08:58:43.059Z,97299.03
2023-03-10T09:01:13.981Z,97300.06
2023-03-10T09:03:45.691Z,97294.16
2023-03-10T09:06:14.640Z,97303.22
2023-03-10T09:08:42.723Z,97299.38
2023-03-10T09:11:11.328Z,97305.25
2023-03-10T09:13:39.364Z,97313.41
2023-03-10T09:16:11.127Z,97318.78
2023-03-10T09:18:40.541Z,97313.66
2023-03-10T09:21:08.610Z,97310.69
2023-03-10T09:23:36.374Z,97324.63
2023-03-10T09:26:04.284Z,97313.69
2023-03-10T09:28:32.014Z,97323.94
2023-03-10T09:30:59.766Z,97316.41
2023-03-10T09:33:27.841Z,97309.88
2023-03-10T09:36:06.314Z,97317.69
2023-03-10T09:38:35.277Z,97311.34
2023-03-10T09:41:20.047Z,97314.06
2023-03-10T09:43:55.557Z,97314.31
2023-03-10T09:46:26.808Z,97309.66
2023-03-10T09:49:01.426Z,97319.03
2023-03-10T09:51:30.889Z,97308.19
2023-03-10T09:54:11.563Z,97312.16
2023-03-10T09:56:39.286Z,97315.25
2023-03-10T09:59:14.109Z,97314.56
2023-03-10T10:01:45.905Z,97306.09
2023-03-10T10:04:18.977Z,97312.59
2023-03-10T10:06:50.924Z,97305.03
2023-03-10T10:09:27.287Z,97302.84
2023-03-10T10:11:55.931Z,97307.66
2023-03-10T10:14:30.433Z,97289.88
2023-03-10T10:17:05.971Z,97310.22
2023-03-10T10:19:36.799Z,97317.53
2023-03-10T10:22:11.419Z,97324.00
2023-03-10T10:24:40.543Z,97314.66
2023-03-10T10:27:08.334Z,97318.56
2023-03-10T10:29:37.617Z,97305.44
2023-03-10T10:32:08.342Z,97321.84
2023-03-10T10:34:38.579Z,97324.09
2023-03-10T10:37:24.550Z,97320.72
2023-03-10T10:39:54.279Z,97320.31
2023-03-10T10:42:26.026Z,97325.75
2023-03-10T10:44:56.059Z,97339.75
2023-03-10T10:47:30.462Z,97328.25
2023-03-10T10:50:18.103Z,97337.28
2023-03-10T10:52:49.307Z,97331.97
2023-03-10T10:55:29.840Z,97331.53
2023-03-10T10:58:01.450Z,97331.97
2023-03-10T11:00:33.200Z,97340.94
2023-03-10T11:03:01.792Z,97340.31
2023-03-10T11:05:35.964Z,97334.94
2023-03-10T11:08:20.009Z,97341.03
2023-03-10T11:10:56.065Z,97329.88
2023-03-10T11:13:30.351Z,97342.81
2023-03-10T11:16:04.492Z,97326.28
2023-03-10T11:18:37.990Z,97327.53
2023-03-10T11:21:13.231Z,97336.88
2023-03-10T11:23:51.078Z,97332.78
2023-03-10T11:26:28.821Z,97345.38
2023-03-10T11:29:01.979Z,97341.84
2023-03-10T11:31:41.222Z,97331.53
2023-03-10T11:34:19.326Z,97344.03
2023-03-10T11:36:57.265Z,97336.34
2023-03-10T11:39:36.363Z,97331.63
2023-03-10T11:42:08.537Z,97335.47
2023-03-10T11:44:41.905Z,97330.34
2023-03-10T11:47:20.138Z,97322.84
2023-03-10T11:49:55.494Z,97318.03
2023-03-10T11:52:26.015Z,97306.09
2023-03-10T11:55:05.701Z,97313.66
2023-03-10T11:57:40.891Z,97302.44
2023-03-10T12:00:20.541Z,97304.75
2023-03-10T12:03:03.150Z,97307.22
2023-03-10T12:05:41.044Z,97319.69
2023-03-10T12:08:09.938Z,97318.88
2023-03-10T12:10:42.241Z,97317.16
2023-03-10T12:13:19.755Z,97318.56
2023-03-10T12:15:48.951Z,97324.69
2023-03-10T12:18:16.755Z,97318.00
2023-03-10T12:20:44.484Z,97318.50
2023-03-10T12:23:31.268Z,97322.88
2023-03-10T12:26:02.197Z,97322.44
2023-03-10T12:28:30.303Z,97317.97
2023-03-10T12:30:59.331Z,97311.28
2023-03-10T12:33:50.297Z,97301.25
2023-03-10T12:36:27.814Z,97292.81
2023-03-10T12:38:57.479Z,97284.63
2023-03-10T12:41:45.880Z,97285.88
2023-03-10T12:44:57.968Z,97277.31
2023-03-10T12:47:31.759Z,97280.31
2023-03-10T12:50:04.238Z,97278.94
2023-03-10T12:52:39.581Z,97262.03
2023-03-10T12:55:18.645Z,97247.91
2023-03-10T12:57:57.305Z,97267.38
2023-03-10T13:00:40.190Z,97251.41
2023-03-10T13:03:19.435Z,97260.16
2023-03-10T13:06:04.596Z,97264.50
2023-03-10T13:08:42.175Z,97251.03
2023-03-10T13:11:24.238Z,97245.50
2023-03-10T13:13:58.317Z,97246.66
2023-03-10T13:16:26.125Z,97241.25
2023-03-10T13:18:55.263Z,97249.88
2023-03-10T13:21:25.255Z,97260.84
2023-03-10T13:23:53.407Z,97265.53
2023-03-10T13:26:21.880Z,97258.09
2023-03-10T13:28:55.957Z,97263.66
2023-03-10T13:31:26.652Z,97250.28
2023-03-10T13:33:55.779Z,97248.94
2023-03-10T13:36:35.043Z,97258.75
2023-03-10T13:39:05.113Z,97256.41
2023-03-10T13:41:37.388Z,97240.47
2023-03-10T13:44:06.966Z,97232.53
2023-03-10T13:46:35.748Z,97235.94
2023-03-10T13:49:06.943Z,97270.44
2023-03-10T13:51:36.120Z,97245.72
2023-03-10T13:54:22.861Z,97251.03
2023-03-10T13:56:53.134Z,97255.84
2023-03-10T13:59:24.946Z,97279.88
2023-03-10T14:01:55.402Z,97263.88
2023-03-10T14:04:45.886Z,97267.69
2023-03-10T14:07:18.296Z,97279.19
2023-03-10T14:09:47.717Z,97305.78
2023-03-10T14:12:16.289Z,97286.66
2023-03-10T14:14:45.294Z,97303.47
2023-03-10T14:17:31.449Z,97279.72
2023-03-10T14:19:59.290Z,97310.53
2023-03-10T14:22:35.310Z,97298.66
2023-03-10T14:25:07.323Z,97306.75
2023-03-10T14:27:36.354Z,97325.38
2023-03-10T14:30:18.559Z,97341.69
2023-03-10T14:32:46.909Z,97316.72
2023-03-10T14:35:16.776Z,97319.06
2023-03-10T14:37:44.362Z,97320.94
2023-03-10T14:40:13.488Z,97337.81
2023-03-10T14:42:42.431Z,97329.09
2023-03-10T14:45:26.469Z,97340.66
2023-03-10T14:47:55.909Z,97356.03
2023-03-10T14:50:25.358Z,97353.25
2023-03-10T14:52:53.249Z,97396.31
2023-03-10T14:55:20.963Z,97355.75
2023-03-10T14:57:50.776Z,97353.97
2023-03-10T15:00:22.867Z,97358.06
2023-03-10T15:02:50.539Z,97364.97
2023-03-10T15:05:20.070Z,97378.31
2023-03-10T15:07:48.771Z,97400.03
2023-03-10T15:10:18.085Z,97399.31
2023-03-10T15:12:45.954Z,97394.47
2023-03-10T15:15:17.300Z,97423.31
2023-03-10T15:17:47.032Z,97417.50
2023-03-10T15:20:18.919Z,97415.59
2023-03-10T15:22:47.199Z,97420.53
2023-03-10T15:25:16.487Z,97418.34
2023-03-10T15:27:44.625Z,97422.00
2023-03-10T15:30:18.270Z,97403.44
2023-03-10T15:32:47.374Z,97461.44
2023-03-10T15:35:16.653Z,97430.03
2023-03-10T15:37:44.995Z,97439.97
2023-03-10T15:40:16.798Z,97445.06
2023-03-10T15:42:44.577Z,97419.81
2023-03-10T15:45:13.322Z,97443.78
2023-03-10T15:47:41.008Z,97445.25
2023-03-10T15:50:11.680Z,97430.63
2023-03-10T15:52:39.760Z,97439.25
2023-03-10T15:55:08.090Z,97454.03
2023-03-10T15:57:35.779Z,97448.66
2023-03-10T16:00:04.003Z,97498.22
2023-03-10T16:02:31.830Z,97460.09
2023-03-10T16:04:59.523Z,97441.06
2023-03-10T16:07:28.767Z,97440.28
2023-03-10T16:09:56.590Z,97426.41
2023-03-10T16:12:24.292Z,97431.19
2023-03-10T16:14:52.099Z,97440.50
2023-03-10T16:17:20.799Z,97468.50
2023-03-10T16:19:48.846Z,97468.94
2023-03-10T16:22:16.596Z,97485.56
2023-03-10T16:24:45.735Z,97487.81
2023-03-10T16:27:14.316Z,97487.81
2023-03-10T16:29:41.983Z,97511.34
2023-03-10T16:32:11.890Z,97515.38
2023-03-10T16:34:39.666Z,97531.00
2023-03-10T16:37:08.156Z,97525.09
2023-03-10T16:39:36.614Z,97519.25
2023-03-10T16:42:06.492Z,97543.56
2023-03-10T16:44:34.151Z,97545.44
2023-03-10T16:47:01.750Z,97542.59
2023-03-10T16:49:32.036Z,97527.81
2023-03-10T16:51:59.985Z,97552.78
2023-03-10T16:54:27.710Z,97568.63
2023-03-10T16:56:57.156Z,97553.41
2023-03-10T16:59:26.302Z,97528.91
2023-03-10T17:01:54.132Z,97580.59
2023-03-10T17:04:21.848Z,97584.41
2023-03-10T17:06:49.712Z,97607.13
2023-03-10T17:09:18.269Z,97587.91
2023-03-10T17:11:47.461Z,97580.00
2023-03-10T17:14:17.378Z,97594.78
2023-03-10T17:16:46.867Z,97569.91
2023-03-10T17:19:16.248Z,97589.34
2023-03-10T17:21:46.560Z,97630.66
2023-03-10T17:24:15.237Z,97646.44
2023-03-10T17:26:43.434Z,97655.56
2023-03-10T17:29:11.582Z,97652.94
2023-03-10T17:31:39.731Z,97655.38
2023-03-10T17:34:11.760Z,97680.88
2023-03-10T17:36:39.703Z,97683.28
2023-03-10T17:39:08.363Z,97700.69
2023-03-10T17:41:36.900Z,97698.66
2023-03-10T17:44:05.336Z,97704.75
2023-03-10T17:46:33.403Z,97682.84
2023-03-10T17:49:01.409Z,97713.25
2023-03-10T17:51:32.188Z,97703.72
2023-03-10T17:54:01.798Z,97722.94
2023-03-10T17:56:30.076Z,97715.66
2023-03-10T17:58:59.191Z,97735.09
2023-03-10T18:01:28.922Z,97715.63
2023-03-10T18:03:57.558Z,97730.19
2023-03-10T18:06:27.164Z,97712.34
2023-03-10T18:08:56.866Z,97744.31
2023-03-10T18:11:25.411Z,97725.69
2023-03-10T18:13:53.452Z,97728.75
2023-03-10T18:16:23.036Z,97737.19
2023-03-10T18:18:50.968Z,97717.22
2023-03-10T18:21:20.187Z,97738.00
2023-03-10T18:23:48.903Z,97777.44
2023-03-10T18:26:19.974Z,97808.63
2023-03-10T18:28:47.904Z,97807.16
2023-03-10T18:31:19.494Z,97808.56
2023-03-10T18:33:48.293Z,97843.63
2023-03-10T18:36:17.176Z,97858.13
2023-03-10T18:38:45.180Z,97877.91
2023-03-10T18:41:13.094Z,97873.03
2023-03-10T18:43:42.074Z,97864.09
2023-03-10T18:46:09.767Z,97884.19
2023-03-10T18:48:37.394Z,97898.63
2023-03-10T18:51:05.471Z,97912.34
2023-03-10T18:53:33.154Z,97912.28
2023-03-10T18:56:01.235Z,97937.50
2023-03-10T18:58:29.831Z,97929.81
2023-03-10T19:00:59.124Z,97947.81
2023-03-10T19:03:29.699Z,97936.69
2023-03-10T19:05:57.919Z,98010.66
2023-03-10T19:08:27.079Z,97972.31
2023-03-10T19:10:55.344Z,97998.44
2023-03-10T19:13:23.275Z,97972.22
2023-03-10T19:15:51.268Z,98019.28
2023-03-10T19:18:20.467Z,98006.56
2023-03-10T19:20:48.103Z,98024.97
2023-03-10T19:23:16.221Z,98020.38
2023-03-10T19:25:44.395Z,98031.34
2023-03-10T19:28:12.020Z,98060.53
2023-03-10T19:30:43.021Z,98075.13
2023-03-10T19:33:11.618Z,98057.69
2023-03-10T19:35:40.713Z,98117.13
2023-03-10T19:38:08.723Z,98143.88
2023-03-10T19:40:36.699Z,98125.03
2023-03-10T19:43:04.391Z,98164.66
2023-03-10T19:45:32.186Z,98190.06
2023-03-10T19:47:59.818Z,98200.56
2023-03-10T19:50:28.083Z,98206.59
2023-03-10T19:52:57.050Z,98208.28
2023-03-10T19:55:27.336Z,98192.53
2023-03-10T19:57:56.522Z,98215.16
2023-03-10T20:00:31.384Z,98232.97
2023-03-10T20:02:59.605Z,98258.69
2023-03-10T20:05:27.791Z,98232.53
2023-03-10T20:07:56.806Z,98255.41
2023-03-10T20:10:24.478Z,98252.66
2023-03-10T20:12:52.600Z,98275.25
2023-03-10T20:15:20.812Z,98289.63
2023-03-10T20:17:48.896Z,98306.00
2023-03-10T20:20:20.008Z,98312.09
2023-03-10T20:22:49.607Z,98335.81
2023-03-10T20:25:21.388Z,98345.44
2023-03-10T20:27:50.809Z,98334.53
2023-03-10T20:30:21.317Z,98370.22
2023-03-10T20:32:49.182Z,98359.06
2023-03-10T20:35:18.313Z,98386.91
2023-03-10T20:37:46.335Z,98394.28
2023-03-10T20:40:16.533Z,98430.28
2023-03-10T20:42:45.677Z,98420.63
2023-03-10T20:45:13.842Z,98425.88
2023-03-10T20:47:42.134Z,98441.59
2023-03-10T20:50:13.365Z,98462.88
2023-03-10T20:52:43.168Z,98474.50
2023-03-10T20:55:17.562Z,98489.91
2023-03-10T20:57:47.123Z,98493.31
2023-03-10T21:00:17.625Z,98518.22
2023-03-10T21:02:46.624Z,98519.34
2023-03-10T21:05:15.534Z,98518.47
2023-03-10T21:07:43.589Z,98508.00
2023-03-10T21:10:17.927Z,98521.63
2023-03-10T21:12:47.198Z,98518.94
2023-03-10T21:15:16.385Z,98520.28
2023-03-10T21:17:44.848Z,98516.88
2023-03-10T21:20:17.546Z,98541.06
2023-03-10T21:22:45.596Z,98544.97
2023-03-10T21:25:15.763Z,98546.25
2023-03-10T21:27:44.205Z,98545.00
2023-03-10T21:30:15.317Z,98548.75
2023-03-10T21:32:43.054Z,98544.88
2023-03-10T21:35:13.832Z,98548.28
2023-03-10T21:37:42.747Z,98553.69
2023-03-10T21:40:15.050Z,98560.66
2023-03-10T21:42:42.854Z,98561.63
2023-03-10T21:45:14.362Z,98556.41
2023-03-10T21:47:42.100Z,98569.81
2023-03-10T21:50:11.273Z,98560.28
2023-03-10T21:52:38.882Z,98560.47
2023-03-10T21:55:08.461Z,98568.81
2023-03-10T21:57:36.788Z,98590.72
2023-03-10T22:00:09.452Z,98582.94
2023-03-10T22:02:38.483Z,98580.53
2023-03-10T22:05:06.865Z,98592.94
2023-03-10T22:07:34.803Z,98602.06
2023-03-10T22:10:02.481Z,98598.94
2023-03-10T22:12:30.128Z,98606.22
2023-03-10T22:14:57.896Z,98603.31
2023-03-10T22:17:25.696Z,98617.16
2023-03-10T22:19:55.707Z,98619.13
2023-03-10T22:22:24.095Z,98616.88
2023-03-10T22:24:51.847Z,98614.00
2023-03-10T22:27:19.521Z,98626.31
2023-03-10T22:29:47.256Z,98635.63
2023-03-10T22:32:14.964Z,98645.97
2023-03-10T22:34:42.871Z,98648.28
2023-03-10T22:37:12.345Z,98653.53
2023-03-10T22:39:40.208Z,98656.16
2023-03-10T22:42:08.794Z,98668.84
2023-03-10T22:44:37.101Z,98676.13
2023-03-10T22:47:05.076Z,98682.94
2023-03-10T22:49:34.080Z,98700.94
2023-03-10T22:52:02.637Z,98691.84
2023-03-10T22:54:31.616Z,98697.69
2023-03-10T22:56:59.504Z,98702.09
2023-03-10T22:59:27.271Z,98705.06
2023-03-10T23:01:55.095Z,98707.06
2023-03-10T23:04:22.845Z,98713.84
2023-03-10T23:06:51.380Z,98719.94
2023-03-10T23:09:19.102Z,98719.72
2023-03-10T23:11:48.980Z,98716.81
2023-03-10T23:14:16.959Z,98726.72
2023-03-10T23:16:44.793Z,98725.53
2023-03-10T23:19:12.485Z,98715.38
2023-03-10T23:21:40.083Z,98732.19
2023-03-10T23:24:08.000Z,98729.25
2023-03-10T23:26:37.393Z,98739.50
2023-03-10T23:29:06.482Z,98746.78
2023-03-10T23:31:34.114Z,98727.69
2023-03-10T23:34:01.900Z,98750.94
2023-03-10T23:36:31.024Z,98758.31
2023-03-10T23:38:58.767Z,98756.19
2023-03-10T23:41:26.548Z,98751.13
2023-03-10T23:43:55.051Z,98766.38
2023-03-10T23:46:24.621Z,98751.66
2023-03-10T23:48:52.352Z,98760.06
2023-03-10T23:51:20.065Z,98760.94
2023-03-10T23:53:47.747Z,98765.38
2023-03-10T23:56:15.499Z,98779.31
2023-03-10T23:58:43.173Z,98787.13
